Ytterholmen Fyr, Noruega

11:52 AM CEST en Mayo 28, 2015 (GMT +0200)
Stokka | | Change Station
CLOSE
Current Station
Aeropuerto
Location: Sandnessjoen,
Altura: 56 ft
Estaciones meteorológicas cercanas

Alt 56 ft 65.96 °N, 12.47 °E | Updated 32 minutes ago

Scattered Clouds
Nubes dispersas
50 ° F
Sensación térmica 50 ° F
N
6
Viento Variable Viento desde SO

Hoy
Alta -- | Baja -- ° F
--% Posibilidad de precipitaciones
Ayer
Alta -- | Baja -- ° F
Precip. -- pul
2:44 AM 11:40 PM
Gibosa creciente, 74% visible
Presión 29.71 pul
Visibilidad 6.2 Millas
Nubes Baja 2000 ft
Nubes dispersas 2800 ft
Punto de rocío 39 ° F
Humedad 66%
Precipitaciones 0.00 pul
Espesor de la nieve No disponible.
UV 5 de una escala de 12
Polen No disponible.
Calidad del aire No disponible.
Flu Activity No disponible.
METAR ENST 280920Z 23005KT 200V260 9999 FEW020TCU SCT028 10/04 Q1006 RMK WIND 300FT 24004KT

More Conditions Fewer Conditions

Presión 29.71 pul
Visibilidad 6.2 Millas
Nubes Baja 2000 ft
Nubes dispersas 2800 ft
Punto de rocío 39 ° F
Humedad 66%
Precipitaciones 0.00 pul
Espesor de la nieve No disponible.
UV 5 de una escala de 12
Polen No disponible.
Calidad del aire No disponible.
Flu Activity No disponible.
METAR ENST 280920Z 23005KT 200V260 9999 FEW020TCU SCT028 10/04 Q1006 RMK WIND 300FT 24004KT

More Conditions Fewer Conditions

10-Day Weather Forecast

Almanac

Astronomía

May. 28, 2015 Salida Puesta
Hora real
Crepúsculo civil
Crepúsculo náutico
Crepúsculo astronómico
Luna
Horas de luz
Horas de luz
Tomorrow will be .
, % of the Moon is Illuminated

Extremos de hoy

Máximos del país Bajas del país

Community

WunderPhotos

Upload Photos

1,824,935 ¡fotos cargadas!

WunderBlogs® & News

Nearby

Calidad del aire

  Calidad del aire Índice AQ Contaminante
Not available.

Grosos de nieve

Estación Profundido Altura

Actividad de terremotos

Ciudad Distance Mag. Tiempo y dato
Magnitud mínima muestra es 2,5.

Temperaturas de aguas costeras

Lugar Temperatura

Stations

Estaciones meteorológicas cercanas

Ubicación de la estación Temp. Vientos helados Punto de rocío Humedad Viento Precip. Alt Actualizado Tipo